Time;durP1;ratioP1;P1;durP2;ratioP2;P2;SDS_P1;SDS_P2;PMS_P1;PMS_P2;Temp;Humidity;BMP_temperature;BMP_pressure;BME280_temperature;BME280_humidity;BME280_pressure;Samples;Min_cycle;Max_cycle;Signal;HPM_P1;HPM_P2
2021/08/25 00:00:29;;;;;;;3.00;1.70;;;15.50;98.00;;;;;;5074665;28;20459;-70
2021/08/25 00:02:58;;;;;;;1.60;1.50;;;15.40;98.00;;;;;;5074668;28;20485;-71
2021/08/25 00:05:24;;;;;;;2.23;1.10;;;15.40;98.00;;;;;;5074649;28;20474;-70
2021/08/25 00:07:54;;;;;;;3.40;1.77;;;15.30;98.00;;;;;;5074564;28;20509;-70
2021/08/25 00:10:22;;;;;;;1.60;1.30;;;15.30;98.00;;;;;;5074650;28;20466;-71
2021/08/25 00:12:49;;;;;;;1.90;1.43;;;15.30;98.00;;;;;;5056951;28;20505;-69
2021/08/25 00:15:16;;;;;;;1.30;1.20;;;15.40;98.00;;;;;;5056892;28;20457;-72
2021/08/25 00:17:43;;;;;;;1.60;1.40;;;15.40;98.00;;;;;;5074630;28;20945;-70
2021/08/25 00:20:12;;;;;;;1.87;1.53;;;15.40;98.00;;;;;;5074598;28;20495;-71
2021/08/25 00:22:39;;;;;;;1.93;1.47;;;15.30;98.00;;;;;;5074342;28;20487;-70
2021/08/25 00:25:07;;;;;;;2.00;1.53;;;15.20;98.00;;;;;;5074459;28;20456;-70
2021/08/25 00:27:34;;;;;;;3.00;1.50;;;15.20;98.00;;;;;;5074447;28;20463;-70
2021/08/25 00:30:03;;;;;;;2.27;1.40;;;15.20;98.00;;;;;;5074296;28;20526;-69
2021/08/25 00:32:30;;;;;;;1.80;1.57;;;15.00;98.00;;;;;;5074311;28;20474;-70
2021/08/25 00:34:59;;;;;;;1.83;1.40;;;15.00;98.00;;;;;;5074154;28;20502;-71
2021/08/25 00:37:27;;;;;;;2.53;1.40;;;14.90;98.00;;;;;;5074251;28;20450;-69
2021/08/25 00:39:54;;;;;;;2.10;1.40;;;14.90;98.00;;;;;;5073905;28;20449;-70
2021/08/25 00:42:21;;;;;;;4.40;1.40;;;14.80;98.00;;;;;;5074177;28;20503;-69
2021/08/25 00:44:48;;;;;;;2.17;1.50;;;14.80;98.00;;;;;;5073669;28;20493;-71
2021/08/25 00:47:15;;;;;;;1.63;1.53;;;14.90;98.00;;;;;;5073883;28;20496;-71
2021/08/25 00:49:43;;;;;;;3.10;1.60;;;15.00;98.00;;;;;;5073765;28;20909;-70
2021/08/25 00:52:10;;;;;;;3.63;1.90;;;15.00;98.00;;;;;;5073481;28;20455;-71
2021/08/25 00:54:39;;;;;;;1.40;1.40;;;15.10;98.00;;;;;;5073566;28;20494;-69
2021/08/25 00:57:07;;;;;;;1.30;1.27;;;15.10;98.00;;;;;;5073656;28;20460;-71
2021/08/25 00:59:35;;;;;;;2.57;2.00;;;15.20;98.00;;;;;;5073490;28;20483;-71
2021/08/25 01:02:13;;;;;;;4.27;1.77;;;15.00;98.00;;;;;;5073501;28;21016;-70
2021/08/25 01:04:45;;;;;;;2.07;1.60;;;15.10;98.00;;;;;;5073428;28;20465;-70
2021/08/25 01:07:15;;;;;;;2.47;1.77;;;15.00;98.00;;;;;;5055198;28;20462;-72
2021/08/25 01:09:44;;;;;;;1.80;1.60;;;14.80;98.00;;;;;;5073273;28;20526;-70
2021/08/25 01:12:12;;;;;;;1.43;1.37;;;14.80;98.00;;;;;;5073441;28;20513;-70
2021/08/25 01:14:40;;;;;;;2.10;1.47;;;14.90;98.00;;;;;;5055526;28;20513;-70
2021/08/25 01:17:09;;;;;;;1.30;1.30;;;14.90;98.00;;;;;;5073281;28;20548;-71
2021/08/25 01:19:46;;;;;;;1.50;1.40;;;14.90;98.00;;;;;;5073169;28;20498;-69
2021/08/25 01:22:17;;;;;;;1.40;1.30;;;15.00;98.00;;;;;;5073251;28;20550;-70
2021/08/25 01:24:48;;;;;;;1.70;1.60;;;14.90;98.00;;;;;;5073336;28;20523;-71
2021/08/25 01:27:17;;;;;;;1.70;1.47;;;14.80;98.00;;;;;;5073182;28;20515;-70
2021/08/25 01:29:48;;;;;;;1.50;1.20;;;14.80;98.00;;;;;;5055598;28;20518;-72
2021/08/25 01:32:16;;;;;;;2.17;1.50;;;14.70;98.00;;;;;;5072320;28;20551;-70
2021/08/25 01:34:54;;;;;;;3.30;1.93;;;14.80;98.00;;;;;;5071991;28;20991;-70
2021/08/25 01:37:21;;;;;;;1.30;1.23;;;14.80;98.00;;;;;;5072077;28;20466;-70
2021/08/25 01:39:49;;;;;;;1.80;1.63;;;15.00;98.00;;;;;;5072093;28;20886;-72
2021/08/25 01:42:17;;;;;;;1.67;1.57;;;14.90;98.00;;;;;;5072927;28;20496;-70
2021/08/25 01:44:46;;;;;;;3.73;1.57;;;14.70;98.00;;;;;;5072815;28;20504;-72
2021/08/25 01:47:14;;;;;;;2.70;1.60;;;14.50;98.00;;;;;;5072913;28;21120;-70
2021/08/25 01:49:43;;;;;;;1.30;1.20;;;14.50;98.00;;;;;;5072782;28;20484;-70
2021/08/25 01:52:10;;;;;;;2.83;1.80;;;14.40;98.00;;;;;;5071321;28;20488;-72
2021/08/25 01:54:38;;;;;;;1.60;1.40;;;14.20;98.00;;;;;;5072624;28;20868;-70
2021/08/25 01:57:06;;;;;;;1.70;1.40;;;14.20;98.00;;;;;;5072900;28;20453;-70
2021/08/25 01:59:33;;;;;;;1.77;1.47;;;14.30;98.00;;;;;;5072773;28;20928;-69
2021/08/25 02:02:03;;;;;;;2.80;1.77;;;14.40;98.00;;;;;;5072843;28;20454;-70
2021/08/25 02:04:31;;;;;;;2.33;1.50;;;14.50;98.00;;;;;;5054980;28;20493;-71
2021/08/25 02:06:58;;;;;;;2.07;1.20;;;14.60;98.00;;;;;;5072165;28;20493;-70
2021/08/25 02:09:25;;;;;;;2.00;1.50;;;14.60;98.00;;;;;;5072141;28;20525;-71
2021/08/25 02:11:52;;;;;;;1.80;1.60;;;14.50;98.00;;;;;;5072245;28;21132;-72
2021/08/25 02:14:19;;;;;;;1.97;1.50;;;14.40;98.00;;;;;;5072005;28;20531;-71
2021/08/25 02:16:47;;;;;;;2.27;1.50;;;14.30;98.00;;;;;;5072104;28;20505;-72
2021/08/25 02:19:15;;;;;;;1.67;1.27;;;14.20;98.00;;;;;;5071915;28;20462;-71
2021/08/25 02:21:42;;;;;;;1.93;1.40;;;14.00;98.00;;;;;;5071932;28;20952;-71
2021/08/25 02:24:09;;;;;;;2.83;1.90;;;13.90;98.00;;;;;;5072055;28;20459;-71
2021/08/25 02:26:36;;;;;;;2.37;1.50;;;13.80;98.00;;;;;;5054413;28;20495;-69
2021/08/25 02:29:04;;;;;;;2.53;2.03;;;13.70;98.00;;;;;;5071937;28;21088;-70
2021/08/25 02:31:31;;;;;;;1.20;1.03;;;13.70;98.00;;;;;;5071871;28;20480;-71
2021/08/25 02:33:58;;;;;;;1.53;1.33;;;13.90;98.00;;;;;;5071769;28;20844;-70
2021/08/25 02:36:26;;;;;;;1.53;1.50;;;14.00;98.00;;;;;;5053992;28;20485;-70
2021/08/25 02:38:53;;;;;;;1.67;1.33;;;14.10;98.00;;;;;;5071877;28;20484;-70
2021/08/25 02:41:21;;;;;;;2.07;1.77;;;14.10;98.00;;;;;;5071630;28;20460;-71
2021/08/25 02:43:49;;;;;;;1.60;1.10;;;14.10;98.00;;;;;;5071914;28;20506;-71
2021/08/25 02:46:18;;;;;;;1.50;1.40;;;14.00;98.00;;;;;;5070925;28;20460;-70
2021/08/25 02:48:45;;;;;;;1.80;1.30;;;13.90;98.00;;;;;;5071612;28;20495;-69
2021/08/25 02:51:12;;;;;;;1.20;1.20;;;13.90;98.00;;;;;;5071747;28;20512;-72
2021/08/25 02:53:41;;;;;;;1.80;1.70;;;13.90;98.00;;;;;;5071830;28;20493;-71
2021/08/25 02:56:08;;;;;;;1.93;1.30;;;13.80;98.00;;;;;;5071681;28;20492;-70
2021/08/25 02:58:35;;;;;;;1.87;1.30;;;13.60;98.00;;;;;;5071729;28;20525;-72
2021/08/25 03:01:02;;;;;;;1.73;1.37;;;13.50;98.00;;;;;;5071628;28;20495;-70
2021/08/25 03:03:29;;;;;;;1.70;1.40;;;13.50;98.00;;;;;;5071648;28;20505;-69
2021/08/25 03:05:56;;;;;;;1.57;1.23;;;13.50;98.00;;;;;;5071549;28;20453;-70
2021/08/25 03:08:23;;;;;;;2.27;1.53;;;13.50;98.00;;;;;;5071614;28;20462;-70
2021/08/25 03:10:53;;;;;;;4.40;1.60;;;13.50;98.00;;;;;;5071553;28;20543;-71
2021/08/25 03:13:20;;;;;;;1.70;1.20;;;13.60;98.00;;;;;;5053861;28;20489;-70
2021/08/25 03:15:48;;;;;;;2.10;1.60;;;13.60;98.00;;;;;;5053823;28;20498;-70
2021/08/25 03:18:15;;;;;;;2.73;1.53;;;13.50;98.00;;;;;;5071757;28;20525;-70
2021/08/25 03:20:42;;;;;;;1.77;1.40;;;13.40;98.00;;;;;;5071643;28;20522;-70
2021/08/25 03:23:09;;;;;;;1.47;1.30;;;13.40;98.00;;;;;;5071529;28;20494;-71
2021/08/25 03:25:36;;;;;;;2.17;1.20;;;13.30;98.00;;;;;;5071627;28;20459;-71
2021/08/25 03:28:04;;;;;;;2.33;1.60;;;13.20;98.00;;;;;;5071266;28;20464;-70
2021/08/25 03:30:31;;;;;;;1.57;1.30;;;13.30;98.00;;;;;;5073478;28;20519;-71
2021/08/25 03:32:58;;;;;;;1.30;1.20;;;13.10;98.00;;;;;;5075146;28;20461;-72
2021/08/25 03:35:25;;;;;;;1.93;1.33;;;13.00;98.00;;;;;;5057549;28;21007;-70
2021/08/25 03:37:54;;;;;;;1.27;1.17;;;12.80;98.00;;;;;;5075213;28;20938;-69
2021/08/25 03:40:21;;;;;;;1.80;1.70;;;12.80;98.00;;;;;;5073008;28;20505;-70
2021/08/25 03:42:48;;;;;;;2.17;1.40;;;12.90;98.00;;;;;;5075168;28;20553;-71
2021/08/25 03:45:17;;;;;;;2.13;1.57;;;12.90;98.00;;;;;;5074967;28;20555;-71
2021/08/25 03:47:44;;;;;;;1.70;1.40;;;12.90;98.00;;;;;;5074816;28;20947;-69
2021/08/25 03:50:11;;;;;;;1.20;1.20;;;13.10;98.00;;;;;;5074824;28;20485;-70
2021/08/25 03:52:38;;;;;;;2.93;1.70;;;13.20;98.00;;;;;;5074889;28;20514;-71
2021/08/25 03:55:05;;;;;;;1.50;1.20;;;13.30;98.00;;;;;;5074883;28;21130;-70
2021/08/25 03:57:32;;;;;;;1.37;1.30;;;13.20;98.00;;;;;;5074902;28;20900;-71
2021/08/25 03:59:59;;;;;;;1.20;1.10;;;13.10;98.00;;;;;;5074678;28;20544;-71
2021/08/25 04:02:27;;;;;;;1.90;1.40;;;13.10;98.00;;;;;;5074560;28;21013;-69
2021/08/25 04:04:56;;;;;;;1.30;1.20;;;13.10;98.00;;;;;;5074657;28;20521;-71
2021/08/25 04:07:23;;;;;;;1.80;1.20;;;13.10;98.00;;;;;;5074677;28;20497;-70
2021/08/25 04:09:50;;;;;;;1.90;1.53;;;12.90;98.00;;;;;;5074475;28;20529;-70
2021/08/25 04:12:17;;;;;;;1.30;1.27;;;12.90;98.00;;;;;;5074599;28;20940;-70
2021/08/25 04:14:44;;;;;;;3.37;1.70;;;12.90;98.00;;;;;;5074453;28;20551;-70
2021/08/25 04:17:11;;;;;;;1.80;1.40;;;12.90;98.00;;;;;;5074481;28;20539;-70
2021/08/25 04:19:39;;;;;;;3.00;1.77;;;12.90;98.00;;;;;;5074303;28;20495;-70
2021/08/25 04:22:06;;;;;;;1.43;1.37;;;12.80;98.00;;;;;;5074469;28;20484;-70
2021/08/25 04:24:33;;;;;;;1.97;1.83;;;12.70;98.00;;;;;;5056661;28;20501;-70
2021/08/25 04:27:00;;;;;;;1.40;1.10;;;12.70;98.00;;;;;;5074398;28;20490;-70
2021/08/25 04:29:27;;;;;;;1.43;1.20;;;12.70;98.00;;;;;;5074212;28;20559;-69
2021/08/25 04:31:55;;;;;;;1.30;1.20;;;12.70;98.00;;;;;;5074210;28;20967;-70
2021/08/25 04:34:22;;;;;;;1.40;1.30;;;12.70;98.00;;;;;;5073984;28;20497;-70
2021/08/25 04:36:50;;;;;;;1.83;1.57;;;12.70;98.00;;;;;;5074354;28;20455;-70
2021/08/25 04:39:17;;;;;;;1.80;1.70;;;12.70;98.00;;;;;;5074239;28;20501;-70
2021/08/25 04:41:44;;;;;;;2.60;1.70;;;12.80;98.00;;;;;;5073082;28;20521;-71
2021/08/25 04:44:12;;;;;;;1.60;1.50;;;12.70;98.00;;;;;;5074082;28;20504;-71
2021/08/25 04:46:39;;;;;;;2.20;1.70;;;12.70;98.00;;;;;;5073939;28;20506;-70
2021/08/25 04:49:05;;;;;;;2.60;1.60;;;12.60;98.00;;;;;;5074026;28;20957;-70
2021/08/25 04:51:33;;;;;;;1.50;1.20;;;12.60;98.00;;;;;;5073467;28;21009;-72
2021/08/25 04:54:01;;;;;;;1.50;1.23;;;12.60;98.00;;;;;;5056215;28;20498;-70
2021/08/25 04:56:28;;;;;;;2.03;1.60;;;12.60;98.00;;;;;;5073793;28;20867;-69
2021/08/25 04:58:55;;;;;;;1.87;1.47;;;12.70;98.00;;;;;;5073560;28;20953;-70
2021/08/25 05:01:23;;;;;;;1.50;1.20;;;12.70;98.00;;;;;;5073353;28;20487;-70
2021/08/25 05:03:50;;;;;;;1.50;1.27;;;12.80;98.00;;;;;;5073661;28;20474;-71
2021/08/25 05:06:17;;;;;;;1.20;1.00;;;12.90;98.00;;;;;;5073544;28;20498;-69
2021/08/25 05:08:44;;;;;;;3.97;1.43;;;12.90;98.00;;;;;;5073521;28;20555;-69
2021/08/25 05:11:13;;;;;;;1.30;1.20;;;12.90;98.00;;;;;;5073308;28;20485;-70
2021/08/25 05:13:41;;;;;;;2.57;1.50;;;12.90;98.00;;;;;;5073385;28;20489;-71
2021/08/25 05:16:11;;;;;;;3.37;1.83;;;12.90;98.00;;;;;;5073175;28;20456;-69
2021/08/25 05:18:38;;;;;;;1.83;1.30;;;12.90;98.00;;;;;;5072591;28;20467;-71
2021/08/25 05:21:05;;;;;;;1.57;1.23;;;13.00;98.00;;;;;;5073123;28;20505;-69
2021/08/25 05:23:32;;;;;;;2.73;1.70;;;13.00;98.00;;;;;;5073099;28;20484;-69
2021/08/25 05:26:03;;;;;;;2.27;1.43;;;12.90;98.00;;;;;;5073066;28;20485;-70
2021/08/25 05:28:32;;;;;;;1.40;1.30;;;12.90;98.00;;;;;;5073134;28;20460;-69
2021/08/25 05:30:59;;;;;;;1.30;1.20;;;12.80;98.00;;;;;;5072841;28;20546;-71
2021/08/25 05:33:26;;;;;;;2.17;1.33;;;12.90;98.00;;;;;;5072821;28;20562;-71
2021/08/25 05:35:53;;;;;;;1.53;1.40;;;12.90;98.00;;;;;;5072789;28;20519;-70
2021/08/25 05:38:20;;;;;;;2.80;1.43;;;12.80;98.00;;;;;;5072936;28;20456;-70
2021/08/25 05:40:47;;;;;;;1.60;1.50;;;12.80;98.00;;;;;;5072880;28;20868;-69
2021/08/25 05:43:15;;;;;;;1.50;1.17;;;12.80;98.00;;;;;;5072925;28;20514;-70
2021/08/25 05:45:44;;;;;;;1.70;1.37;;;12.90;98.00;;;;;;5072667;28;20486;-72
2021/08/25 05:48:11;;;;;;;2.57;1.40;;;13.00;98.00;;;;;;5072993;28;20459;-70
2021/08/25 05:50:38;;;;;;;2.47;1.27;;;13.10;98.00;;;;;;5072449;28;20484;-71
2021/08/25 05:53:07;;;;;;;2.07;1.70;;;13.30;98.00;;;;;;5072408;28;20872;-72
2021/08/25 05:55:34;;;;;;;1.50;1.50;;;13.30;98.00;;;;;;5072761;28;20475;-71
2021/08/25 05:58:01;;;;;;;2.27;1.57;;;13.20;98.00;;;;;;5072784;28;20481;-72
2021/08/25 06:00:28;;;;;;;1.70;1.30;;;13.30;98.00;;;;;;5072490;28;20507;-70
2021/08/25 06:02:56;;;;;;;1.70;1.30;;;13.40;98.00;;;;;;5072656;28;20485;-73
2021/08/25 06:05:23;;;;;;;2.00;1.33;;;13.60;98.00;;;;;;5054787;28;20529;-70
2021/08/25 06:07:50;;;;;;;1.60;1.20;;;13.60;98.00;;;;;;5072204;28;20502;-72
2021/08/25 06:10:17;;;;;;;1.50;1.27;;;13.60;98.00;;;;;;5072347;28;20516;-72
2021/08/25 06:12:44;;;;;;;3.10;2.07;;;13.60;98.00;;;;;;5071999;28;20484;-71
2021/08/25 06:15:11;;;;;;;2.13;1.30;;;13.80;98.00;;;;;;5072018;28;20489;-71
2021/08/25 06:17:38;;;;;;;2.07;1.50;;;14.00;98.00;;;;;;5072176;28;20494;-71
2021/08/25 06:20:09;;;;;;;1.40;1.23;;;14.10;98.00;;;;;;5071990;28;20863;-70
2021/08/25 06:22:36;;;;;;;1.80;1.80;;;14.30;98.00;;;;;;5054060;28;20507;-72
2021/08/25 06:25:03;;;;;;;3.40;1.30;;;14.40;98.00;;;;;;5072059;28;20816;-71
2021/08/25 06:27:30;;;;;;;2.00;1.40;;;14.50;98.00;;;;;;5071943;28;20509;-71
2021/08/25 06:30:11;;;;;;;1.40;1.30;;;14.70;98.00;;;;;;5071627;28;20854;-72
2021/08/25 06:32:38;;;;;;;2.60;1.57;;;14.80;98.00;;;;;;5071526;28;20567;-71
2021/08/25 06:35:08;;;;;;;1.50;1.50;;;14.90;98.00;;;;;;5071799;28;20469;-71
2021/08/25 06:37:35;;;;;;;4.00;1.90;;;15.10;98.00;;;;;;5071846;28;20953;-71
2021/08/25 06:40:02;;;;;;;1.60;1.53;;;15.20;98.00;;;;;;5071837;28;21034;-70
2021/08/25 06:42:29;;;;;;;1.50;1.40;;;15.20;98.00;;;;;;5072151;28;20594;-71
2021/08/25 06:44:56;;;;;;;1.97;1.50;;;15.30;98.00;;;;;;5053991;28;20562;-71
2021/08/25 06:47:23;;;;;;;1.30;1.27;;;15.30;98.00;;;;;;5077125;28;21024;-71
2021/08/25 06:49:50;;;;;;;1.43;1.37;;;15.30;98.00;;;;;;5072880;28;20461;-71
2021/08/25 06:52:18;;;;;;;2.00;1.47;;;15.40;98.00;;;;;;5078125;28;20508;-72
2021/08/25 06:54:47;;;;;;;4.00;1.43;;;15.40;98.00;;;;;;5078445;28;20512;-70
2021/08/25 06:57:14;;;;;;;1.20;1.20;;;15.50;98.00;;;;;;5078019;28;20464;-71
2021/08/25 06:59:41;;;;;;;2.17;1.77;;;15.50;98.00;;;;;;5069183;28;20454;-70
2021/08/25 07:02:08;;;;;;;2.10;1.57;;;15.60;98.00;;;;;;5060585;28;20497;-72
2021/08/25 07:04:35;;;;;;;1.40;1.27;;;15.80;98.00;;;;;;5085918;28;20523;-70
2021/08/25 07:07:02;;;;;;;1.30;1.30;;;15.90;98.00;;;;;;5054202;28;20542;-72
2021/08/25 07:09:30;;;;;;;1.50;1.40;;;15.90;98.00;;;;;;5070080;28;20494;-70
2021/08/25 07:11:58;;;;;;;1.50;1.30;;;16.00;98.00;;;;;;5057590;28;20895;-71
2021/08/25 07:14:25;;;;;;;1.40;1.40;;;16.00;98.00;;;;;;5086942;28;20533;-71
2021/08/25 07:16:52;;;;;;;1.30;1.27;;;16.10;98.00;;;;;;5071515;28;20486;-70
2021/08/25 07:19:19;;;;;;;1.57;1.53;;;16.10;98.00;;;;;;5084518;28;20470;-72
2021/08/25 07:21:46;;;;;;;1.50;1.33;;;16.10;98.00;;;;;;5072358;28;20532;-70
2021/08/25 07:24:13;;;;;;;1.30;1.10;;;16.20;98.00;;;;;;5070807;28;20482;-71
2021/08/25 07:26:43;;;;;;;1.40;1.27;;;16.40;98.00;;;;;;5066190;28;20454;-71
2021/08/25 07:29:10;;;;;;;1.73;1.30;;;16.50;98.00;;;;;;5075080;28;20454;-71
2021/08/25 07:31:37;;;;;;;1.50;1.50;;;16.60;98.00;;;;;;5091290;28;20487;-72
2021/08/25 07:34:04;;;;;;;1.30;1.10;;;16.60;98.00;;;;;;5091306;28;20531;-71
2021/08/25 07:36:31;;;;;;;1.60;1.30;;;16.70;98.00;;;;;;5091112;28;20455;-72
2021/08/25 07:38:59;;;;;;;2.13;1.57;;;16.70;98.00;;;;;;5090694;28;20489;-71
2021/08/25 07:41:26;;;;;;;1.90;1.80;;;16.80;98.00;;;;;;5072822;28;20472;-72
2021/08/25 07:43:54;;;;;;;2.00;1.87;;;16.90;98.00;;;;;;5090816;28;20463;-70
2021/08/25 07:46:21;;;;;;;1.60;1.50;;;17.00;98.00;;;;;;5090590;28;20538;-70
2021/08/25 07:48:51;;;;;;;2.23;1.50;;;17.00;98.00;;;;;;5090824;28;20527;-71
2021/08/25 07:51:18;;;;;;;1.97;1.37;;;17.10;98.00;;;;;;5072687;28;20493;-71
2021/08/25 07:53:48;;;;;;;2.33;1.40;;;17.20;98.00;;;;;;5072751;28;20463;-72
2021/08/25 07:56:15;;;;;;;1.50;1.40;;;17.30;98.00;;;;;;5090789;28;20792;-70
2021/08/25 07:58:42;;;;;;;1.60;1.40;;;17.40;98.00;;;;;;5090528;28;20452;-71
2021/08/25 08:01:10;;;;;;;1.40;1.20;;;17.50;98.00;;;;;;5090463;28;20872;-70
2021/08/25 08:03:37;;;;;;;1.70;1.53;;;17.70;98.00;;;;;;5090580;28;21045;-72
2021/08/25 08:06:04;;;;;;;2.43;1.50;;;17.80;98.00;;;;;;5090467;28;20452;-72
2021/08/25 08:08:31;;;;;;;1.50;1.20;;;17.80;98.00;;;;;;5072523;28;20456;-71
2021/08/25 08:10:58;;;;;;;1.60;1.43;;;17.80;98.00;;;;;;5090268;28;20567;-71
2021/08/25 08:13:25;;;;;;;2.53;1.70;;;17.80;98.00;;;;;;5090363;28;20516;-71
2021/08/25 08:15:52;;;;;;;2.07;1.60;;;17.90;98.00;;;;;;5091385;28;20486;-72
2021/08/25 08:18:28;;;;;;;2.80;1.63;;;18.00;98.00;;;;;;5093947;28;20459;-70
2021/08/25 08:20:55;;;;;;;4.80;1.70;;;18.20;98.00;;;;;;5093827;28;20451;-72
2021/08/25 08:23:22;;;;;;;1.73;1.50;;;18.30;98.00;;;;;;5093124;28;20487;-72
2021/08/25 08:25:49;;;;;;;1.60;1.40;;;18.40;98.00;;;;;;5093802;28;20729;-70
2021/08/25 08:28:16;;;;;;;2.30;1.33;;;18.60;98.00;;;;;;5093942;28;20513;-73
2021/08/25 08:30:43;;;;;;;2.17;1.67;;;18.60;98.00;;;;;;5093589;28;20522;-72
2021/08/25 08:33:10;;;;;;;1.40;1.30;;;18.80;98.00;;;;;;5075820;28;20862;-73
2021/08/25 08:35:38;;;;;;;1.30;1.20;;;18.90;98.00;;;;;;5093048;28;20479;-70
2021/08/25 08:38:06;;;;;;;2.60;1.70;;;19.00;98.00;;;;;;5093817;28;20847;-71
2021/08/25 08:40:34;;;;;;;1.30;1.10;;;19.00;98.00;;;;;;5093544;28;20509;-72
2021/08/25 08:43:05;;;;;;;2.13;1.40;;;19.10;98.00;;;;;;5093581;28;20520;-72
2021/08/25 08:45:38;;;;;;;1.40;1.30;;;19.20;98.00;;;;;;5093481;28;20539;-72
2021/08/25 08:48:08;;;;;;;1.70;1.43;;;19.30;98.00;;;;;;5093702;28;20452;-70
2021/08/25 08:50:35;;;;;;;2.80;1.30;;;19.30;98.00;;;;;;5093539;28;20452;-72
2021/08/25 08:53:09;;;;;;;1.20;1.10;;;19.40;98.00;;;;;;5093869;28;20633;-71
2021/08/25 08:55:37;;;;;;;1.90;1.40;;;19.60;98.00;;;;;;5074674;28;20467;-74
2021/08/25 08:58:05;;;;;;;3.23;1.83;;;19.70;98.00;;;;;;5093331;28;20452;-73
2021/08/25 09:00:32;;;;;;;2.43;1.50;;;19.70;98.00;;;;;;5093335;28;20459;-74
2021/08/25 09:02:59;;;;;;;1.40;1.30;;;19.90;98.00;;;;;;5093059;28;20452;-71
2021/08/25 09:05:27;;;;;;;1.53;1.30;;;19.90;98.00;;;;;;5093100;28;20451;-72
2021/08/25 09:07:58;;;;;;;1.37;1.33;;;20.00;98.00;;;;;;5093011;28;20480;-73
2021/08/25 09:10:28;;;;;;;1.60;1.30;;;19.90;98.00;;;;;;5092849;28;20460;-73
2021/08/25 09:12:57;;;;;;;1.40;1.40;;;20.10;98.00;;;;;;5092847;28;20582;-70
2021/08/25 09:15:25;;;;;;;1.40;1.40;;;20.20;98.00;;;;;;5092831;28;20877;-71
2021/08/25 09:17:57;;;;;;;1.73;1.40;;;20.20;98.00;;;;;;5092910;28;20589;-71
2021/08/25 09:20:28;;;;;;;1.40;1.40;;;20.40;98.00;;;;;;5092767;28;20908;-70
2021/08/25 09:23:09;;;;;;;3.00;1.30;;;20.60;98.00;;;;;;5074790;28;20444;-72
2021/08/25 09:25:38;;;;;;;1.80;1.27;;;20.70;97.10;;;;;;5092597;28;20523;-72
2021/08/25 09:28:07;;;;;;;1.53;1.50;;;20.80;96.20;;;;;;5091826;28;20488;-73
2021/08/25 09:30:55;;;;;;;1.27;1.13;;;20.70;96.70;;;;;;5092515;28;20459;-73
2021/08/25 09:33:23;;;;;;;1.50;1.30;;;20.90;96.40;;;;;;5092505;28;20455;-73
2021/08/25 09:35:50;;;;;;;1.30;1.30;;;21.00;97.00;;;;;;5092498;28;20453;-72
2021/08/25 09:38:19;;;;;;;1.77;1.20;;;21.10;96.40;;;;;;5092433;28;20452;-72
2021/08/25 09:40:48;;;;;;;1.60;1.33;;;21.20;94.90;;;;;;5074318;28;20496;-72
2021/08/25 09:43:35;;;;;;;1.30;1.30;;;21.10;93.90;;;;;;5092537;28;20919;-72
2021/08/25 09:46:10;;;;;;;1.43;1.40;;;21.00;95.30;;;;;;5092210;28;20463;-74
2021/08/25 09:48:39;;;;;;;1.50;1.37;;;21.10;96.10;;;;;;5092329;28;20464;-72
2021/08/25 09:51:06;;;;;;;1.73;1.53;;;21.20;95.30;;;;;;5092002;28;20936;-72
2021/08/25 09:53:33;;;;;;;2.13;1.60;;;21.40;94.60;;;;;;5074336;28;20486;-73
2021/08/25 09:56:02;;;;;;;2.00;1.30;;;21.50;95.60;;;;;;5091982;28;20505;-73
2021/08/25 09:58:29;;;;;;;1.57;1.50;;;21.60;93.40;;;;;;5092183;28;20536;-72
2021/08/25 10:00:56;;;;;;;1.80;1.40;;;21.40;94.80;;;;;;5092040;28;20495;-74
2021/08/25 10:03:24;;;;;;;2.00;1.50;;;21.30;94.70;;;;;;5092024;28;20544;-72
2021/08/25 10:05:51;;;;;;;1.40;1.40;;;21.30;94.30;;;;;;5074025;28;20479;-72
2021/08/25 10:08:20;;;;;;;1.73;1.30;;;21.40;95.10;;;;;;5091882;28;20458;-72
2021/08/25 10:10:47;;;;;;;3.20;2.03;;;21.50;93.40;;;;;;5074105;28;20513;-72
2021/08/25 10:13:16;;;;;;;1.93;1.40;;;21.80;95.20;;;;;;5092092;28;20824;-72
2021/08/25 10:15:47;;;;;;;1.30;1.30;;;21.90;93.20;;;;;;5074044;28;20484;-73
2021/08/25 10:18:26;;;;;;;1.60;1.53;;;21.90;93.40;;;;;;5091892;28;20869;-72
2021/08/25 10:20:54;;;;;;;2.40;1.53;;;22.00;93.90;;;;;;5091783;28;20451;-72
2021/08/25 10:24:00;;;;;;;1.30;1.20;;;22.10;92.30;;;;;;5091720;28;20466;-73
2021/08/25 10:26:28;;;;;;;1.77;1.50;;;22.20;92.10;;;;;;5072504;28;20486;-72
2021/08/25 10:29:09;;;;;;;2.17;1.50;;;22.00;90.30;;;;;;5091617;28;20460;-73
2021/08/25 10:32:13;;;;;;;1.30;1.30;;;21.90;91.30;;;;;;5091480;28;20523;-72
2021/08/25 10:34:42;;;;;;;1.53;1.37;;;21.60;92.10;;;;;;5042053;28;20475;-73
2021/08/25 10:37:33;;;;;;;1.50;1.40;;;21.50;90.70;;;;;;5091360;28;20453;-73
2021/08/25 10:40:03;;;;;;;1.80;1.43;;;21.70;91.90;;;;;;5070065;28;20475;-73
2021/08/25 10:42:52;;;;;;;1.43;1.37;;;21.90;91.40;;;;;;5091334;28;20456;-73
2021/08/25 10:45:58;;;;;;;1.70;1.63;;;22.10;89.50;;;;;;5091238;28;20460;-73
2021/08/25 10:48:39;;;;;;;1.30;1.23;;;21.90;88.40;;;;;;5076346;28;20467;-72
2021/08/25 10:51:33;;;;;;;2.40;1.50;;;22.00;89.80;;;;;;5091282;28;20452;-74
2021/08/25 10:54:01;;;;;;;2.10;1.53;;;22.40;89.50;;;;;;5073093;28;20460;-72
2021/08/25 10:56:31;;;;;;;1.27;1.10;;;22.60;88.60;;;;;;5091218;28;20459;-73
2021/08/25 10:59:02;;;;;;;2.10;1.60;;;22.80;88.60;;;;;;5091208;28;20810;-72
2021/08/25 11:01:32;;;;;;;3.60;1.80;;;22.70;88.30;;;;;;5091109;28;20539;-73
2021/08/25 11:04:00;;;;;;;2.80;1.77;;;22.90;89.60;;;;;;5091192;28;20456;-72
2021/08/25 11:06:32;;;;;;;1.40;1.33;;;23.10;84.60;;;;;;5091213;28;20483;-73
2021/08/25 11:09:16;;;;;;;1.40;1.40;;;23.40;85.70;;;;;;5091506;28;20481;-73
2021/08/25 11:11:49;;;;;;;1.83;1.53;;;23.50;86.40;;;;;;5090967;28;20511;-73
2021/08/25 11:14:20;;;;;;;2.43;1.80;;;23.50;84.80;;;;;;5091250;28;20460;-72
2021/08/25 11:16:49;;;;;;;1.80;1.73;;;23.60;85.70;;;;;;5092246;28;20460;-73
2021/08/25 11:19:24;;;;;;;1.57;1.53;;;23.80;83.90;;;;;;5092242;28;20863;-72
2021/08/25 11:21:52;;;;;;;1.70;1.30;;;24.00;83.60;;;;;;5074267;28;20505;-72
2021/08/25 11:24:19;;;;;;;1.67;1.60;;;24.20;84.10;;;;;;5092152;28;20484;-72
2021/08/25 11:26:47;;;;;;;1.90;1.47;;;24.40;83.20;;;;;;5092128;28;20513;-72
2021/08/25 11:29:26;;;;;;;2.00;1.37;;;24.50;82.10;;;;;;5091174;28;20517;-73
2021/08/25 11:31:54;;;;;;;2.00;1.60;;;24.50;79.70;;;;;;5091063;28;20898;-73
2021/08/25 11:34:28;;;;;;;2.40;1.60;;;24.40;79.70;;;;;;5091070;28;21024;-73
2021/08/25 11:36:57;;;;;;;1.90;1.60;;;24.50;81.00;;;;;;5091001;28;20498;-72
2021/08/25 11:39:26;;;;;;;2.07;1.50;;;24.50;77.60;;;;;;5091048;28;20520;-72
2021/08/25 11:41:56;;;;;;;1.53;1.47;;;24.20;80.60;;;;;;5090661;28;20483;-74
2021/08/25 11:44:41;;;;;;;1.70;1.60;;;24.20;81.70;;;;;;5090606;28;20816;-73
2021/08/25 11:47:19;;;;;;;1.60;1.40;;;24.40;81.10;;;;;;5090680;28;20538;-72
2021/08/25 11:49:47;;;;;;;2.20;1.60;;;24.40;80.40;;;;;;5073177;28;20456;-73
2021/08/25 11:52:15;;;;;;;3.60;1.97;;;24.80;80.90;;;;;;5093915;28;20528;-74
2021/08/25 11:54:43;;;;;;;2.17;1.77;;;25.00;78.50;;;;;;5094477;28;20935;-73
2021/08/25 11:57:12;;;;;;;2.23;1.40;;;25.10;80.50;;;;;;5094408;28;20536;-73
2021/08/25 11:59:58;;;;;;;1.70;1.47;;;25.20;80.60;;;;;;5094292;28;20459;-72
2021/08/25 12:02:27;;;;;;;1.93;1.53;;;25.10;78.20;;;;;;5094126;28;20509;-73
2021/08/25 12:04:54;;;;;;;2.23;1.50;;;25.30;78.50;;;;;;5094326;28;20535;-73
2021/08/25 12:07:21;;;;;;;2.43;1.67;;;25.00;78.80;;;;;;5094132;28;20645;-73
2021/08/25 12:09:48;;;;;;;1.50;1.50;;;24.90;78.10;;;;;;5094234;28;20459;-72
2021/08/25 12:12:16;;;;;;;1.50;1.40;;;24.80;79.70;;;;;;5094065;28;20622;-73
2021/08/25 12:14:50;;;;;;;2.30;1.77;;;24.90;80.40;;;;;;5094073;28;20536;-73
2021/08/25 12:17:20;;;;;;;1.50;1.50;;;24.90;79.30;;;;;;5093824;28;20490;-72
2021/08/25 12:20:00;;;;;;;2.60;1.57;;;25.00;80.00;;;;;;5093884;28;20487;-73
2021/08/25 12:22:29;;;;;;;3.03;1.50;;;25.00;77.70;;;;;;5094052;28;20480;-73
2021/08/25 12:24:57;;;;;;;1.90;1.63;;;25.00;77.40;;;;;;5091981;28;21031;-74
2021/08/25 12:27:24;;;;;;;2.53;1.83;;;24.80;77.10;;;;;;5093772;28;20488;-73
2021/08/25 12:29:51;;;;;;;2.67;1.87;;;24.50;79.10;;;;;;5093897;28;20459;-73
2021/08/25 12:32:18;;;;;;;1.80;1.53;;;24.00;80.60;;;;;;5093602;28;20536;-73
2021/08/25 12:35:08;;;;;;;2.73;2.13;;;23.80;82.10;;;;;;5093452;28;20498;-73
2021/08/25 12:37:51;;;;;;;1.70;1.60;;;23.70;81.10;;;;;;5093631;28;20528;-72
2021/08/25 12:40:22;;;;;;;2.43;1.70;;;23.50;82.90;;;;;;5093530;28;20501;-73
2021/08/25 12:42:52;;;;;;;4.33;2.10;;;23.70;81.10;;;;;;5093528;28;20514;-72
2021/08/25 12:45:21;;;;;;;1.50;1.33;;;23.80;79.20;;;;;;5093425;28;20529;-73
2021/08/25 12:47:49;;;;;;;2.00;1.50;;;23.90;80.60;;;;;;5093548;28;20452;-72
2021/08/25 12:50:18;;;;;;;1.87;1.60;;;24.10;80.80;;;;;;5093470;28;20540;-73
2021/08/25 12:52:45;;;;;;;1.70;1.50;;;24.30;81.30;;;;;;5093341;28;20519;-73
2021/08/25 12:55:12;;;;;;;1.67;1.60;;;24.60;81.80;;;;;;5093609;28;20456;-73
2021/08/25 12:57:40;;;;;;;2.80;1.97;;;24.90;80.80;;;;;;5093673;28;20946;-73